WS71 weather

Flying J Airport
St Croix Falls, Wisconsin, United States

Public forecast

Using degrees Fahrenheit for public forecast. Weather courtesy of forecast.io.

Closest aviation weather report (METAR) to Flying J Airport

Closest report is L O Simenstad Municipal Airport, 7.9 nm (14.7 km) SSW. Retrieved 2020/02/24 01:55 UTC (23 minutes ago):

KOEO 240155Z AUTO 26008KT 10SM CLR 02/M03 A2997 RMK AO2 T00201035

Closest aviation forecast (TAF) to Flying J Airport

Closest forecast is New Richmond Regional Airport, 17.3 nm (32.0 km) S. Retrieved 2020-02-24 00:22 UTC (2 hours ago):

TAF KRNH 232320Z 2400/2424 29006KT P6SM FEW250 FM241100 VRB03KT P6SM VCFG SCT250 FM241600 06005KT P6SM BKN150